createdAt,value
2023-02-27T00:02:05.892Z,54.59
2023-02-27T00:04:41.005Z,55.87
2023-02-27T00:07:12.794Z,54.27
2023-02-27T00:09:44.484Z,54.36
2023-02-27T00:12:15.975Z,55.03
2023-02-27T00:14:47.606Z,54.65
2023-02-27T00:17:19.732Z,54.82
2023-02-27T00:19:51.438Z,54.36
2023-02-27T00:22:22.984Z,54.96
2023-02-27T00:24:54.695Z,55.76
2023-02-27T00:27:26.304Z,54.88
2023-02-27T00:29:58.100Z,55.16
2023-02-27T00:32:33.149Z,55.41
2023-02-27T00:35:07.019Z,56.41
2023-02-27T00:37:39.590Z,55.40
2023-02-27T00:40:12.554Z,54.83
2023-02-27T00:42:46.246Z,55.13
2023-02-27T00:45:18.555Z,55.50
2023-02-27T00:47:50.123Z,55.17
2023-02-27T00:50:21.748Z,54.92
2023-02-27T00:52:53.298Z,54.43
2023-02-27T00:55:27.168Z,54.81
2023-02-27T00:57:58.936Z,55.22
2023-02-27T01:00:30.526Z,55.55
2023-02-27T01:03:02.114Z,54.96
2023-02-27T01:05:33.770Z,54.79
2023-02-27T01:08:05.392Z,54.58
2023-02-27T01:10:37.030Z,54.62
2023-02-27T01:13:10.340Z,55.06
2023-02-27T01:15:42.966Z,55.65
2023-02-27T01:18:14.491Z,54.29
2023-02-27T01:20:46.038Z,54.83
2023-02-27T01:23:17.603Z,54.33
2023-02-27T01:25:49.854Z,54.94
2023-02-27T01:28:21.619Z,54.98
2023-02-27T01:30:53.335Z,53.89
2023-02-27T01:33:24.937Z,54.80
2023-02-27T01:35:56.558Z,54.98
2023-02-27T01:38:31.461Z,53.90
2023-02-27T01:41:05.026Z,55.10
2023-02-27T01:43:56.291Z,55.15
2023-02-27T01:46:30.329Z,55.68
2023-02-27T01:49:24.086Z,54.80
2023-02-27T01:52:03.285Z,54.83
2023-02-27T01:54:42.514Z,55.54
2023-02-27T01:57:15.586Z,55.55
2023-02-27T01:59:47.346Z,56.17
2023-02-27T02:02:32.883Z,56.36
2023-02-27T02:05:07.440Z,55.00
2023-02-27T02:07:41.801Z,56.12
2023-02-27T02:10:16.120Z,56.33
2023-02-27T02:12:47.645Z,55.89
2023-02-27T02:15:27.901Z,55.86
2023-02-27T02:18:29.097Z,56.03
2023-02-27T02:21:57.980Z,55.59
2023-02-27T02:24:51.486Z,55.74
2023-02-27T02:27:47.949Z,56.13
2023-02-27T02:31:06.152Z,56.10
2023-02-27T02:33:58.811Z,56.02
2023-02-27T02:37:37.107Z,57.16
2023-02-27T02:40:30.815Z,56.25
2023-02-27T02:43:19.467Z,56.11
2023-02-27T02:46:21.101Z,55.36
2023-02-27T02:49:02.875Z,55.23
2023-02-27T02:51:50.906Z,56.19
2023-02-27T02:54:43.922Z,54.58
2023-02-27T02:57:26.725Z,54.76
2023-02-27T03:00:10.661Z,54.10
2023-02-27T03:02:52.652Z,53.96
2023-02-27T03:05:37.599Z,52.60
2023-02-27T03:08:17.291Z,51.88
2023-02-27T03:10:56.696Z,52.02
2023-02-27T03:13:31.068Z,52.27
2023-02-27T03:16:31.570Z,52.90
2023-02-27T03:19:11.016Z,52.80
2023-02-27T03:21:51.723Z,53.22
2023-02-27T03:24:32.501Z,52.85
2023-02-27T03:27:07.518Z,53.00
2023-02-27T03:29:47.579Z,53.42
2023-02-27T03:32:30.131Z,52.77
2023-02-27T03:35:04.263Z,52.36
2023-02-27T03:38:01.477Z,53.05
2023-02-27T03:40:45.517Z,51.89
2023-02-27T03:43:42.805Z,52.67
2023-02-27T03:46:18.657Z,51.95
2023-02-27T03:48:50.479Z,52.92
2023-02-27T03:51:25.161Z,52.71
2023-02-27T03:54:11.866Z,52.83
2023-02-27T03:56:58.855Z,53.06
2023-02-27T03:59:32.352Z,53.78
2023-02-27T04:02:04.483Z,53.23
2023-02-27T04:04:36.119Z,53.30
2023-02-27T04:07:38.686Z,54.22
2023-02-27T04:10:39.698Z,52.99
2023-02-27T04:13:22.511Z,52.92
2023-02-27T04:16:27.338Z,53.74
2023-02-27T04:19:30.282Z,53.40
2023-02-27T04:22:40.085Z,52.58
2023-02-27T04:25:39.694Z,52.41
2023-02-27T04:28:21.692Z,53.34
2023-02-27T04:30:59.104Z,52.99
2023-02-27T04:34:10.221Z,52.35
2023-02-27T04:36:43.289Z,52.38
2023-02-27T04:39:28.905Z,51.97
2023-02-27T04:42:06.590Z,52.12
2023-02-27T04:44:39.649Z,52.14
2023-02-27T04:47:14.152Z,51.84
2023-02-27T04:50:00.079Z,52.27
2023-02-27T04:52:40.856Z,51.20
2023-02-27T04:55:23.504Z,52.24
2023-02-27T04:58:03.372Z,51.02
2023-02-27T05:00:38.552Z,51.32
2023-02-27T05:03:18.188Z,51.67
2023-02-27T05:05:53.151Z,51.58
2023-02-27T05:08:53.018Z,50.75
2023-02-27T05:11:26.749Z,50.77
2023-02-27T05:14:16.205Z,50.95
2023-02-27T05:17:09.316Z,51.66
2023-02-27T05:19:44.374Z,52.25
2023-02-27T05:23:08.601Z,52.82
2023-02-27T05:25:51.287Z,51.17
2023-02-27T05:28:41.977Z,51.11
2023-02-27T05:31:50.236Z,52.18
2023-02-27T05:34:29.896Z,51.58
2023-02-27T05:37:46.301Z,51.88
2023-02-27T05:40:30.604Z,50.78
2023-02-27T05:43:12.972Z,50.80
2023-02-27T05:45:48.546Z,51.22
2023-02-27T05:48:50.218Z,51.69
2023-02-27T05:51:28.078Z,52.32
2023-02-27T05:54:08.732Z,51.86
2023-02-27T05:56:43.136Z,51.90
2023-02-27T05:59:28.295Z,52.32
2023-02-27T06:02:00.361Z,52.36
2023-02-27T06:04:32.016Z,52.39
2023-02-27T06:07:06.917Z,52.19
2023-02-27T06:09:39.680Z,51.29
2023-02-27T06:12:11.310Z,50.59
2023-02-27T06:14:42.839Z,51.25
2023-02-27T06:17:14.542Z,51.81
2023-02-27T06:19:46.163Z,51.65
2023-02-27T06:22:17.733Z,50.37
2023-02-27T06:24:49.446Z,51.20
2023-02-27T06:27:21.072Z,50.07
2023-02-27T06:29:54.167Z,51.48
2023-02-27T06:32:26.155Z,49.95
2023-02-27T06:34:57.798Z,50.44
2023-02-27T06:37:29.405Z,50.47
2023-02-27T06:40:01.048Z,52.14
2023-02-27T06:42:32.947Z,50.87
2023-02-27T06:45:05.853Z,50.85
2023-02-27T06:47:39.957Z,49.66
2023-02-27T06:50:13.536Z,49.07
2023-02-27T06:52:45.092Z,49.30
2023-02-27T06:55:22.618Z,49.39
2023-02-27T06:57:54.213Z,50.73
2023-02-27T07:00:26.011Z,49.26
2023-02-27T07:02:57.665Z,48.81
2023-02-27T07:05:29.260Z,50.27
2023-02-27T07:08:04.747Z,48.92
2023-02-27T07:10:36.345Z,49.78
2023-02-27T07:13:07.884Z,50.22
2023-02-27T07:15:40.097Z,50.14
2023-02-27T07:18:11.877Z,49.32
2023-02-27T07:20:43.581Z,48.37
2023-02-27T07:23:15.225Z,48.30
2023-02-27T07:25:48.419Z,48.27
2023-02-27T07:28:20.544Z,46.75
2023-02-27T07:30:54.956Z,46.61
2023-02-27T07:33:26.663Z,45.12
2023-02-27T07:35:58.264Z,46.20
2023-02-27T07:38:32.239Z,47.12
2023-02-27T07:41:04.046Z,46.17
2023-02-27T07:43:35.653Z,46.31
2023-02-27T07:46:07.306Z,46.41
2023-02-27T07:48:40.392Z,47.29
2023-02-27T07:51:11.931Z,46.10
2023-02-27T07:53:45.807Z,44.38
2023-02-27T07:56:17.515Z,45.55
2023-02-27T07:58:49.159Z,44.73
2023-02-27T08:01:23.039Z,44.24
2023-02-27T08:03:56.454Z,45.02
2023-02-27T08:06:28.430Z,43.78
2023-02-27T08:09:00.304Z,43.71
2023-02-27T08:11:31.828Z,43.45
2023-02-27T08:14:03.490Z,43.79
2023-02-27T08:16:35.152Z,44.81
2023-02-27T08:19:06.931Z,45.75
2023-02-27T08:21:38.430Z,45.10
2023-02-27T08:24:10.909Z,45.11
2023-02-27T08:26:42.458Z,47.15
2023-02-27T08:29:15.561Z,48.16
2023-02-27T08:31:48.878Z,47.70
2023-02-27T08:34:20.587Z,47.63
2023-02-27T08:36:52.901Z,47.86
2023-02-27T08:39:24.454Z,49.48
2023-02-27T08:41:56.112Z,48.86
2023-02-27T08:44:27.670Z,47.55
2023-02-27T08:46:59.272Z,47.40
2023-02-27T08:49:33.172Z,47.50
2023-02-27T08:52:05.758Z,46.15
2023-02-27T08:54:37.809Z,46.37
2023-02-27T08:57:12.350Z,46.47
2023-02-27T08:59:44.012Z,46.02
2023-02-27T09:02:15.974Z,47.21
2023-02-27T09:04:47.566Z,47.01
2023-02-27T09:07:21.226Z,47.32
2023-02-27T09:09:53.000Z,47.34
2023-02-27T09:12:24.565Z,47.72
2023-02-27T09:14:56.199Z,46.58
2023-02-27T09:17:27.786Z,46.72
2023-02-27T09:20:00.131Z,47.42
2023-02-27T09:22:31.680Z,47.52
2023-02-27T09:25:03.717Z,46.46
2023-02-27T09:27:36.007Z,47.03
2023-02-27T09:30:09.795Z,46.58
2023-02-27T09:32:41.468Z,46.50
2023-02-27T09:35:15.815Z,45.39
2023-02-27T09:37:49.335Z,47.35
2023-02-27T09:40:29.376Z,46.18
2023-02-27T09:43:09.244Z,47.02
2023-02-27T09:45:41.250Z,45.37
2023-02-27T09:48:30.017Z,45.14
2023-02-27T09:51:02.261Z,45.70
2023-02-27T09:53:41.570Z,44.57
2023-02-27T09:56:35.616Z,45.60
2023-02-27T09:59:31.689Z,46.58
2023-02-27T10:03:03.924Z,45.79
2023-02-27T10:05:44.079Z,45.37
2023-02-27T10:08:53.915Z,44.72
2023-02-27T10:12:12.642Z,44.66
2023-02-27T10:15:27.115Z,46.73
2023-02-27T10:18:26.933Z,45.74
2023-02-27T10:21:24.317Z,45.79
2023-02-27T10:24:29.509Z,44.42
2023-02-27T10:27:05.696Z,45.02
2023-02-27T10:29:41.700Z,44.15
2023-02-27T10:32:25.425Z,44.02
2023-02-27T10:35:17.828Z,45.95
2023-02-27T10:37:59.133Z,44.63
2023-02-27T10:40:35.051Z,44.72
2023-02-27T10:43:07.214Z,43.59
2023-02-27T10:45:39.053Z,44.47
2023-02-27T10:48:11.658Z,45.44
2023-02-27T10:50:52.603Z,44.30
2023-02-27T10:53:27.895Z,44.95
2023-02-27T10:56:08.094Z,44.77
2023-02-27T10:58:39.684Z,44.66
2023-02-27T11:01:12.637Z,43.04
2023-02-27T11:03:44.734Z,43.59
2023-02-27T11:06:26.693Z,43.91
2023-02-27T11:09:33.292Z,43.88
2023-02-27T11:12:29.586Z,44.86
2023-02-27T11:15:11.679Z,44.51
2023-02-27T11:17:44.000Z,42.69
2023-02-27T11:20:37.077Z,44.25
2023-02-27T11:23:21.809Z,44.70
2023-02-27T11:26:15.289Z,45.34
2023-02-27T11:29:02.944Z,46.22
2023-02-27T11:31:37.175Z,45.60
2023-02-27T11:34:39.860Z,44.71
2023-02-27T11:37:32.485Z,43.20
2023-02-27T11:40:16.365Z,44.22
2023-02-27T11:42:58.411Z,44.05
2023-02-27T11:46:17.705Z,42.12
2023-02-27T11:48:57.509Z,42.42
2023-02-27T11:51:50.876Z,42.53
2023-02-27T11:54:49.885Z,42.78
2023-02-27T11:57:35.118Z,43.54
2023-02-27T12:00:29.587Z,43.18
2023-02-27T12:03:46.235Z,44.53
2023-02-27T12:06:35.760Z,43.51
2023-02-27T12:09:34.545Z,42.66
2023-02-27T12:12:26.415Z,42.46
2023-02-27T12:15:18.299Z,42.70
2023-02-27T12:18:21.298Z,42.39
2023-02-27T12:21:13.331Z,43.41
2023-02-27T12:23:58.676Z,43.66
2023-02-27T12:26:39.920Z,41.65
2023-02-27T12:29:22.364Z,42.21
2023-02-27T12:32:48.091Z,43.21
2023-02-27T12:35:27.743Z,43.00
2023-02-27T12:38:01.546Z,41.42
2023-02-27T12:40:42.464Z,41.97
2023-02-27T12:43:50.826Z,44.58
2023-02-27T12:46:40.723Z,44.30
2023-02-27T12:49:51.602Z,45.24
2023-02-27T12:52:38.430Z,46.42
2023-02-27T12:55:26.056Z,46.99
2023-02-27T12:58:41.326Z,49.64
2023-02-27T13:01:35.365Z,49.66
2023-02-27T13:04:18.403Z,52.46
2023-02-27T13:07:04.232Z,51.74
2023-02-27T13:09:41.292Z,50.51
2023-02-27T13:12:50.634Z,51.16
2023-02-27T13:15:33.360Z,52.38
2023-02-27T13:18:23.638Z,50.26
2023-02-27T13:21:23.805Z,50.12
2023-02-27T13:24:24.072Z,50.09
2023-02-27T13:27:03.328Z,49.06
2023-02-27T13:29:47.601Z,48.97
2023-02-27T13:32:44.485Z,49.09
2023-02-27T13:35:36.126Z,50.08
2023-02-27T13:38:34.472Z,48.69
2023-02-27T13:41:21.400Z,49.52
2023-02-27T13:44:21.102Z,49.11
2023-02-27T13:46:52.735Z,50.29
2023-02-27T13:49:29.611Z,49.70
2023-02-27T13:52:02.350Z,48.56
2023-02-27T13:54:40.875Z,49.04
2023-02-27T13:57:21.502Z,50.23
2023-02-27T13:59:57.755Z,50.56
2023-02-27T14:02:59.425Z,50.84
2023-02-27T14:05:55.455Z,49.56
2023-02-27T14:08:30.462Z,48.77
2023-02-27T14:11:24.524Z,48.54
2023-02-27T14:13:57.673Z,50.51
2023-02-27T14:16:38.197Z,50.90
2023-02-27T14:19:15.809Z,50.86
2023-02-27T14:22:30.080Z,50.21
2023-02-27T14:25:40.416Z,50.69
2023-02-27T14:28:41.458Z,50.27
2023-02-27T14:31:36.625Z,49.26
2023-02-27T14:34:15.433Z,48.20
2023-02-27T14:37:01.584Z,47.45
2023-02-27T14:39:38.450Z,47.51
2023-02-27T14:43:04.454Z,47.74
2023-02-27T14:45:36.337Z,47.32
2023-02-27T14:48:10.666Z,48.03
2023-02-27T14:50:42.356Z,47.25
2023-02-27T14:53:24.954Z,46.61
2023-02-27T14:56:00.348Z,46.02
2023-02-27T14:58:34.543Z,46.18
2023-02-27T15:01:09.761Z,46.44
2023-02-27T15:03:52.818Z,45.58
2023-02-27T15:06:44.258Z,44.75
2023-02-27T15:09:43.484Z,44.20
2023-02-27T15:12:20.591Z,44.65
2023-02-27T15:14:59.863Z,44.25
2023-02-27T15:17:46.447Z,44.42
2023-02-27T15:20:32.637Z,45.17
2023-02-27T15:23:26.199Z,45.79
2023-02-27T15:25:59.758Z,46.17
2023-02-27T15:28:38.334Z,45.28
2023-02-27T15:31:17.739Z,44.09
2023-02-27T15:33:51.299Z,44.08
2023-02-27T15:36:27.336Z,44.74
2023-02-27T15:39:17.535Z,45.62
2023-02-27T15:41:58.925Z,45.33
2023-02-27T15:44:44.446Z,45.52
2023-02-27T15:47:25.949Z,45.37
2023-02-27T15:50:10.187Z,46.32
2023-02-27T15:52:49.380Z,46.62
2023-02-27T15:55:29.255Z,47.05
2023-02-27T15:58:03.341Z,47.29
2023-02-27T16:00:35.811Z,46.28
2023-02-27T16:03:09.200Z,46.16
2023-02-27T16:05:41.988Z,46.26
2023-02-27T16:08:18.619Z,46.17
2023-02-27T16:10:51.902Z,46.35
2023-02-27T16:13:38.514Z,46.42
2023-02-27T16:16:35.314Z,46.41
2023-02-27T16:19:27.138Z,47.62
2023-02-27T16:22:17.049Z,49.66
2023-02-27T16:24:49.768Z,49.68
2023-02-27T16:27:24.638Z,50.03
2023-02-27T16:30:02.438Z,50.77
2023-02-27T16:32:37.885Z,51.07
2023-02-27T16:35:21.523Z,51.02
2023-02-27T16:37:59.822Z,50.65
2023-02-27T16:40:31.557Z,50.10
2023-02-27T16:43:03.622Z,50.66
2023-02-27T16:45:35.421Z,50.79
2023-02-27T16:48:07.494Z,50.99
2023-02-27T16:50:43.093Z,51.44
2023-02-27T16:53:14.700Z,50.51
2023-02-27T16:55:46.336Z,50.61
2023-02-27T16:58:18.809Z,51.06
2023-02-27T17:00:50.413Z,51.16
2023-02-27T17:03:22.782Z,50.34
2023-02-27T17:05:54.533Z,50.07
2023-02-27T17:08:26.181Z,50.05
2023-02-27T17:10:58.336Z,49.11
2023-02-27T17:13:30.090Z,50.48
2023-02-27T17:16:04.184Z,49.44
2023-02-27T17:18:37.599Z,51.54
2023-02-27T17:21:09.189Z,50.37
2023-02-27T17:23:40.716Z,49.32
2023-02-27T17:26:13.478Z,49.82
2023-02-27T17:28:45.031Z,50.88
2023-02-27T17:31:18.738Z,50.31
2023-02-27T17:33:53.937Z,50.11
2023-02-27T17:36:26.285Z,49.94
2023-02-27T17:39:01.664Z,49.48
2023-02-27T17:41:34.015Z,49.16
2023-02-27T17:44:11.861Z,49.52
2023-02-27T17:46:43.441Z,49.00
2023-02-27T17:49:15.634Z,49.28
2023-02-27T17:51:47.326Z,48.89
2023-02-27T17:54:19.132Z,49.31
2023-02-27T17:56:50.662Z,49.71
2023-02-27T17:59:22.444Z,51.10
2023-02-27T18:01:55.565Z,51.21
2023-02-27T18:04:27.628Z,50.54
2023-02-27T18:06:59.169Z,50.47
2023-02-27T18:09:33.114Z,51.45
2023-02-27T18:12:04.989Z,50.51
2023-02-27T18:14:37.256Z,50.05
2023-02-27T18:17:12.959Z,49.78
2023-02-27T18:19:44.710Z,50.46
2023-02-27T18:22:16.410Z,50.05
2023-02-27T18:24:49.144Z,49.49
2023-02-27T18:27:22.133Z,50.35
2023-02-27T18:29:54.042Z,50.53
2023-02-27T18:32:26.122Z,51.79
2023-02-27T18:34:58.204Z,51.82
2023-02-27T18:37:29.735Z,53.52
2023-02-27T18:40:01.361Z,53.34
2023-02-27T18:42:35.356Z,54.58
2023-02-27T18:45:09.148Z,54.94
2023-02-27T18:47:41.745Z,55.20
2023-02-27T18:50:13.979Z,56.04
2023-02-27T18:52:47.294Z,56.65
2023-02-27T18:55:19.832Z,56.50
2023-02-27T18:57:51.401Z,56.90
2023-02-27T19:00:24.630Z,57.50
2023-02-27T19:02:56.924Z,56.32
2023-02-27T19:05:28.781Z,56.74
2023-02-27T19:08:00.417Z,57.00
2023-02-27T19:10:34.888Z,56.29
2023-02-27T19:13:09.397Z,56.72
2023-02-27T19:15:41.079Z,58.05
2023-02-27T19:18:12.620Z,57.24
2023-02-27T19:20:44.375Z,57.47
2023-02-27T19:23:15.910Z,57.17
2023-02-27T19:25:49.086Z,57.36
2023-02-27T19:28:20.604Z,56.62
2023-02-27T19:30:52.399Z,56.39
2023-02-27T19:33:24.307Z,56.99
2023-02-27T19:35:55.855Z,57.38
2023-02-27T19:38:27.396Z,57.36
2023-02-27T19:41:11.887Z,56.86
2023-02-27T19:43:43.879Z,56.43
2023-02-27T19:46:20.414Z,56.71
2023-02-27T19:48:54.482Z,56.00
2023-02-27T19:51:26.978Z,56.65
2023-02-27T19:53:58.611Z,56.70
2023-02-27T19:56:31.209Z,56.55
2023-02-27T19:59:03.321Z,55.89
2023-02-27T20:01:38.860Z,55.81
2023-02-27T20:04:11.342Z,56.55
2023-02-27T20:06:45.101Z,56.30
2023-02-27T20:09:18.618Z,56.51
2023-02-27T20:11:55.380Z,56.38
2023-02-27T20:14:28.063Z,56.37
2023-02-27T20:16:59.749Z,55.81
2023-02-27T20:19:31.416Z,56.19
2023-02-27T20:22:03.421Z,55.84
2023-02-27T20:24:35.220Z,56.11
2023-02-27T20:27:09.612Z,55.38
2023-02-27T20:29:42.460Z,55.90
2023-02-27T20:32:16.529Z,55.08
2023-02-27T20:34:50.283Z,54.99
2023-02-27T20:37:25.438Z,54.77
2023-02-27T20:40:00.047Z,54.29
2023-02-27T20:42:32.567Z,55.47
2023-02-27T20:45:05.507Z,54.74
2023-02-27T20:47:38.226Z,55.22
2023-02-27T20:50:13.584Z,54.63
2023-02-27T20:52:48.279Z,53.99
2023-02-27T20:55:22.002Z,54.92
2023-02-27T20:57:54.559Z,54.32
2023-02-27T21:00:26.821Z,53.96
2023-02-27T21:03:00.791Z,53.43
2023-02-27T21:05:34.152Z,54.74
2023-02-27T21:08:09.922Z,54.62
2023-02-27T21:10:41.956Z,54.26
2023-02-27T21:13:13.469Z,55.06
2023-02-27T21:15:45.945Z,54.09
2023-02-27T21:18:17.533Z,54.64
2023-02-27T21:20:50.541Z,54.25
2023-02-27T21:23:22.067Z,53.79
2023-02-27T21:25:53.719Z,54.87
2023-02-27T21:28:25.573Z,53.97
2023-02-27T21:30:57.816Z,52.60
2023-02-27T21:33:29.390Z,52.94
2023-02-27T21:36:01.202Z,54.17
2023-02-27T21:38:35.276Z,53.15
2023-02-27T21:41:11.764Z,53.73
2023-02-27T21:43:43.842Z,54.04
2023-02-27T21:46:15.487Z,53.05
2023-02-27T21:48:47.032Z,54.02
2023-02-27T21:51:33.053Z,53.63
2023-02-27T21:54:11.968Z,53.50
2023-02-27T21:56:45.658Z,52.99
2023-02-27T21:59:19.340Z,53.56
2023-02-27T22:01:51.096Z,54.21
2023-02-27T22:04:23.466Z,54.19
2023-02-27T22:06:55.506Z,53.77
2023-02-27T22:09:27.298Z,53.18
2023-02-27T22:11:58.826Z,53.58
2023-02-27T22:14:30.383Z,53.16
2023-02-27T22:17:02.002Z,53.66
2023-02-27T22:19:33.571Z,52.95
2023-02-27T22:22:05.423Z,53.26
2023-02-27T22:24:37.034Z,53.34
2023-02-27T22:27:09.351Z,53.39
2023-02-27T22:29:42.340Z,53.18
2023-02-27T22:32:14.758Z,54.02
2023-02-27T22:34:46.326Z,53.49
2023-02-27T22:37:19.770Z,53.88
2023-02-27T22:39:51.320Z,53.13
2023-02-27T22:42:23.696Z,53.49
2023-02-27T22:44:58.717Z,52.46
2023-02-27T22:47:31.479Z,52.73
2023-02-27T22:50:04.260Z,53.17
2023-02-27T22:52:37.243Z,53.03
2023-02-27T22:55:09.638Z,53.63
2023-02-27T22:57:41.237Z,53.07
2023-02-27T23:00:13.259Z,52.97
2023-02-27T23:02:44.962Z,52.96
2023-02-27T23:05:16.546Z,52.37
2023-02-27T23:07:48.076Z,53.14
2023-02-27T23:10:19.675Z,52.70
2023-02-27T23:12:51.449Z,52.64
2023-02-27T23:15:23.069Z,53.81
2023-02-27T23:17:58.562Z,52.84
2023-02-27T23:20:30.439Z,52.20
2023-02-27T23:23:01.970Z,52.33
2023-02-27T23:25:35.696Z,53.73
2023-02-27T23:28:07.933Z,53.18
2023-02-27T23:30:39.548Z,53.77
2023-02-27T23:33:11.103Z,52.72
2023-02-27T23:35:43.366Z,52.91
2023-02-27T23:38:15.029Z,53.39
2023-02-27T23:40:49.944Z,53.39
2023-02-27T23:43:40.641Z,52.33
2023-02-27T23:46:16.267Z,53.08
2023-02-27T23:48:48.388Z,52.23
2023-02-27T23:51:19.928Z,53.27
2023-02-27T23:53:52.627Z,53.08
2023-02-27T23:56:28.919Z,52.59
2023-02-27T23:59:04.767Z,52.95
